Time;durP1;ratioP1;P1;durP2;ratioP2;P2;SDS_P1;SDS_P2;PMS_P1;PMS_P2;Temp;Humidity;BMP_temperature;BMP_pressure;BME280_temperature;BME280_humidity;BME280_pressure;Samples;Min_cycle;Max_cycle;Signal;HPM_P1;HPM_P2
2023/04/01 00:00:45;;;;;;;;;;;19.50;55.90;;;;;;6250889;28;19919;-70
2023/04/01 00:03:46;;;;;;;;;;;19.50;55.90;;;;;;6250917;28;19935;-70
2023/04/01 00:06:47;;;;;;;;;;;19.50;55.90;;;;;;6268310;28;19908;-71
2023/04/01 00:09:47;;;;;;;;;;;19.50;56.60;;;;;;6268645;28;19917;-68
2023/04/01 00:12:48;;;;;;;;;;;19.50;55.90;;;;;;6268215;28;19916;-68
2023/04/01 00:15:49;;;;;;;;;;;19.50;55.90;;;;;;6268733;28;19909;-68
2023/04/01 00:18:50;;;;;;;;;;;19.50;55.90;;;;;;6234216;28;20379;-68
2023/04/01 00:21:52;;;;;;;;;;;19.50;55.90;;;;;;6231480;28;20029;-68
2023/04/01 00:24:52;;;;;;;;;;;19.50;55.90;;;;;;6231010;28;19913;-69
2023/04/01 00:27:53;;;;;;;;;;;19.50;55.90;;;;;;6248721;28;19909;-68
2023/04/01 00:30:54;;;;;;;;;;;19.50;55.90;;;;;;6230978;28;19909;-68
2023/04/01 00:33:54;;;;;;;;;;;19.50;55.90;;;;;;6248626;28;19916;-68
2023/04/01 00:36:55;;;;;;;;;;;19.50;55.80;;;;;;6248792;28;19909;-68
2023/04/01 00:39:56;;;;;;;;;;;19.50;55.90;;;;;;6230744;28;19920;-68
2023/04/01 00:42:57;;;;;;;;;;;19.50;55.90;;;;;;6248528;28;19943;-68
2023/04/01 00:45:57;;;;;;;;;;;19.50;55.90;;;;;;6248338;28;19956;-69
2023/04/01 00:48:58;;;;;;;;;;;19.50;55.90;;;;;;6263185;28;19963;-68
2023/04/01 00:52:01;;;;;;;;;;;19.50;55.90;;;;;;6272811;28;19928;-69
2023/04/01 00:55:04;;;;;;;;;;;19.50;55.90;;;;;;6255112;28;20042;-68
2023/04/01 00:58:07;;;;;;;;;;;19.50;55.90;;;;;;6266921;28;19949;-69
2023/04/01 01:01:08;;;;;;;;;;;19.50;55.90;;;;;;6248065;28;19917;-69
2023/04/01 01:04:21;;;;;;;;;;;19.50;55.90;;;;;;6248183;28;20015;-69
2023/04/01 01:07:24;;;;;;;;;;;19.50;55.90;;;;;;6247534;28;19920;-69
2023/04/01 01:10:25;;;;;;;;;;;19.50;55.90;;;;;;6271761;28;19959;-68
2023/04/01 01:13:28;;;;;;;;;;;19.50;55.90;;;;;;6254680;28;19934;-70
2023/04/01 01:16:31;;;;;;;;;;;19.50;55.90;;;;;;6272217;28;19909;-69
2023/04/01 01:19:40;;;;;;;;;;;19.50;55.90;;;;;;6257122;28;20016;-68
2023/04/01 01:22:52;;;;;;;;;;;19.50;55.90;;;;;;6229753;28;19913;-68
2023/04/01 01:25:58;;;;;;;;;;;19.50;55.90;;;;;;6245018;28;19917;-69
2023/04/01 01:29:02;;;;;;;;;;;19.50;55.90;;;;;;6247975;28;19909;-70
2023/04/01 01:32:23;;;;;;;;;;;19.50;55.90;;;;;;6247208;28;19909;-70
2023/04/01 01:35:26;;;;;;;;;;;19.50;55.90;;;;;;6229521;28;19916;-71
2023/04/01 01:38:28;;;;;;;;;;;19.50;55.90;;;;;;6250391;28;19940;-71
2023/04/01 01:41:30;;;;;;;;;;;19.50;55.90;;;;;;6271948;28;19916;-71
2023/04/01 01:44:32;;;;;;;;;;;19.50;55.90;;;;;;6254088;28;20495;-70
2023/04/01 01:47:35;;;;;;;;;;;19.50;55.90;;;;;;6271503;28;20334;-70
2023/04/01 01:50:36;;;;;;;;;;;19.50;55.90;;;;;;6251548;28;19913;-69
2023/04/01 01:53:37;;;;;;;;;;;19.50;55.90;;;;;;6228681;28;19927;-68
2023/04/01 01:56:38;;;;;;;;;;;19.50;55.90;;;;;;6229151;28;19909;-68
2023/04/01 01:59:40;;;;;;;;;;;19.50;55.90;;;;;;6239480;28;19913;-70
2023/04/01 02:02:41;;;;;;;;;;;19.50;55.90;;;;;;6253253;28;19915;-68
2023/04/01 02:05:42;;;;;;;;;;;19.50;56.00;;;;;;6271507;28;19944;-70
2023/04/01 02:08:45;;;;;;;;;;;19.50;55.90;;;;;;6271272;28;19913;-68
2023/04/01 02:11:48;;;;;;;;;;;19.50;55.90;;;;;;6253261;28;20003;-69
2023/04/01 02:14:52;;;;;;;;;;;19.50;55.90;;;;;;6271256;28;19931;-70
2023/04/01 02:17:53;;;;;;;;;;;19.50;55.90;;;;;;6271107;28;19939;-69
2023/04/01 02:20:56;;;;;;;;;;;19.50;55.90;;;;;;6270960;28;20326;-68
2023/04/01 02:23:57;;;;;;;;;;;19.40;55.80;;;;;;6269405;28;20397;-68
2023/04/01 02:26:58;;;;;;;;;;;19.50;55.90;;;;;;6228172;28;20370;-68
2023/04/01 02:29:58;;;;;;;;;;;19.50;55.90;;;;;;6228231;28;19909;-68
2023/04/01 02:33:00;;;;;;;;;;;19.50;55.90;;;;;;6227924;28;19941;-68
2023/04/01 02:36:00;;;;;;;;;;;19.50;55.90;;;;;;6245541;28;19915;-69
2023/04/01 02:39:02;;;;;;;;;;;19.50;55.90;;;;;;6245455;28;19921;-68
2023/04/01 02:42:03;;;;;;;;;;;19.50;55.90;;;;;;6227472;28;19992;-69
2023/04/01 02:45:04;;;;;;;;;;;19.50;55.90;;;;;;6245552;28;19975;-68
2023/04/01 02:48:05;;;;;;;;;;;19.50;55.90;;;;;;6245796;28;19909;-68
2023/04/01 02:51:06;;;;;;;;;;;19.50;56.60;;;;;;6257317;28;19959;-68
2023/04/01 02:54:06;;;;;;;;;;;19.50;56.00;;;;;;6270237;28;19968;-69
2023/04/01 02:57:07;;;;;;;;;;;19.50;55.90;;;;;;6246531;28;20264;-69
2023/04/01 03:00:11;;;;;;;;;;;19.50;55.90;;;;;;6245434;28;19913;-68
2023/04/01 03:03:13;;;;;;;;;;;19.50;55.90;;;;;;6227299;28;19951;-69
2023/04/01 03:06:14;;;;;;;;;;;19.50;55.90;;;;;;6227449;28;19909;-68
2023/04/01 03:09:15;;;;;;;;;;;19.50;55.90;;;;;;6245256;28;19908;-68
2023/04/01 03:12:16;;;;;;;;;;;19.50;55.90;;;;;;6267385;28;19916;-68
2023/04/01 03:15:17;;;;;;;;;;;19.50;55.90;;;;;;6246231;28;20460;-69
2023/04/01 03:18:18;;;;;;;;;;;19.50;55.90;;;;;;6227378;28;19956;-68
2023/04/01 03:21:20;;;;;;;;;;;19.50;55.90;;;;;;6244782;28;19923;-68
2023/04/01 03:24:20;;;;;;;;;;;19.40;55.80;;;;;;6245054;28;19913;-69
2023/04/01 03:27:21;;;;;;;;;;;19.40;55.90;;;;;;6247919;28;19952;-69
2023/04/01 03:30:23;;;;;;;;;;;19.50;55.90;;;;;;6269317;28;20005;-69
2023/04/01 03:33:23;;;;;;;;;;;19.50;55.90;;;;;;6269402;28;19990;-69
2023/04/01 03:36:24;;;;;;;;;;;19.50;55.90;;;;;;6242178;28;19913;-70
2023/04/01 03:39:25;;;;;;;;;;;19.50;55.90;;;;;;6251275;28;19970;-70
2023/04/01 03:42:25;;;;;;;;;;;19.40;55.80;;;;;;6251416;28;20411;-69
2023/04/01 03:45:26;;;;;;;;;;;19.50;55.90;;;;;;6248561;28;19913;-69
2023/04/01 03:48:26;;;;;;;;;;;19.40;55.80;;;;;;6244452;28;19920;-69
2023/04/01 03:51:27;;;;;;;;;;;19.50;55.90;;;;;;6243945;28;19967;-69
2023/04/01 03:54:27;;;;;;;;;;;19.40;55.80;;;;;;6225448;28;19943;-69
2023/04/01 03:57:30;;;;;;;;;;;19.50;55.90;;;;;;6226252;28;19909;-70
2023/04/01 04:00:30;;;;;;;;;;;19.50;55.90;;;;;;6243836;28;19920;-68
2023/04/01 04:03:31;;;;;;;;;;;19.50;55.90;;;;;;6243740;28;19971;-69
2023/04/01 04:06:32;;;;;;;;;;;19.50;55.90;;;;;;6225950;28;19914;-69
2023/04/01 04:09:33;;;;;;;;;;;19.50;55.90;;;;;;6244003;28;20307;-69
2023/04/01 04:12:33;;;;;;;;;;;19.50;55.90;;;;;;6243624;28;19940;-68
2023/04/01 04:15:34;;;;;;;;;;;19.40;55.80;;;;;;6243838;28;19948;-69
2023/04/01 04:18:35;;;;;;;;;;;19.50;55.90;;;;;;6225927;28;19957;-69
2023/04/01 04:21:36;;;;;;;;;;;19.50;55.90;;;;;;6226431;28;20391;-69
2023/04/01 04:24:36;;;;;;;;;;;19.50;55.90;;;;;;6225618;28;19909;-69
2023/04/01 04:27:37;;;;;;;;;;;19.40;55.80;;;;;;6243934;28;19920;-68
2023/04/01 04:30:38;;;;;;;;;;;19.50;55.90;;;;;;6243666;28;19916;-69
2023/04/01 04:33:38;;;;;;;;;;;19.40;55.80;;;;;;6243414;28;19913;-68
2023/04/01 04:36:39;;;;;;;;;;;19.50;55.90;;;;;;6248864;28;19913;-68
2023/04/01 04:39:40;;;;;;;;;;;19.50;55.90;;;;;;6268357;28;19912;-68
2023/04/01 04:42:40;;;;;;;;;;;19.50;55.90;;;;;;6268272;28;19948;-69
2023/04/01 04:45:41;;;;;;;;;;;19.50;55.90;;;;;;6268256;28;19924;-69
2023/04/01 04:48:43;;;;;;;;;;;19.50;55.90;;;;;;6268135;28;19982;-69
2023/04/01 04:51:44;;;;;;;;;;;19.50;55.90;;;;;;6250361;28;19921;-69
2023/04/01 04:54:45;;;;;;;;;;;19.40;55.80;;;;;;6250120;28;19939;-68
2023/04/01 04:57:45;;;;;;;;;;;19.50;55.90;;;;;;6268013;28;19915;-68
2023/04/01 05:00:46;;;;;;;;;;;19.50;55.90;;;;;;6249015;28;20260;-68
2023/04/01 05:03:47;;;;;;;;;;;19.50;55.90;;;;;;6200988;28;20265;-68
2023/04/01 05:06:47;;;;;;;;;;;19.50;55.90;;;;;;6210186;28;19910;-68
2023/04/01 05:09:48;;;;;;;;;;;19.50;55.90;;;;;;6255089;28;20417;-70
2023/04/01 05:12:48;;;;;;;;;;;19.50;55.90;;;;;;6272666;28;19909;-70
2023/04/01 05:15:49;;;;;;;;;;;19.50;56.00;;;;;;6272387;28;19913;-69
2023/04/01 05:18:49;;;;;;;;;;;19.50;55.90;;;;;;6254179;28;19952;-67
2023/04/01 05:21:50;;;;;;;;;;;19.50;55.90;;;;;;6229911;28;19913;-67
2023/04/01 05:24:51;;;;;;;;;;;19.50;55.90;;;;;;6246791;28;19917;-67
2023/04/01 05:27:51;;;;;;;;;;;19.50;55.90;;;;;;6247512;28;20000;-67
2023/04/01 05:30:52;;;;;;;;;;;19.50;55.90;;;;;;6229131;28;19932;-67
2023/04/01 05:33:53;;;;;;;;;;;19.50;55.90;;;;;;6246885;28;19910;-67
2023/04/01 05:36:54;;;;;;;;;;;19.50;55.90;;;;;;6247073;28;19909;-67
2023/04/01 05:39:55;;;;;;;;;;;19.50;55.90;;;;;;6246829;28;19917;-67
2023/04/01 05:42:55;;;;;;;;;;;19.50;55.90;;;;;;6247264;28;19916;-67
2023/04/01 05:45:56;;;;;;;;;;;19.40;55.80;;;;;;6228960;28;19916;-67
2023/04/01 05:48:57;;;;;;;;;;;19.40;55.80;;;;;;6246568;28;19916;-67
2023/04/01 05:51:57;;;;;;;;;;;19.50;55.90;;;;;;6246569;28;19921;-69
2023/04/01 05:55:00;;;;;;;;;;;19.50;55.90;;;;;;6268697;28;19931;-69
2023/04/01 05:58:00;;;;;;;;;;;19.50;55.90;;;;;;6271469;28;19909;-67
2023/04/01 06:01:05;;;;;;;;;;;19.40;55.80;;;;;;6270981;28;19928;-67
2023/04/01 06:04:06;;;;;;;;;;;19.50;55.90;;;;;;6257466;28;19909;-67
2023/04/01 06:07:14;;;;;;;;;;;19.50;55.90;;;;;;6228275;28;20000;-70
2023/04/01 06:10:16;;;;;;;;;;;19.50;55.90;;;;;;6246336;28;19913;-69
2023/04/01 06:13:20;;;;;;;;;;;19.50;55.80;;;;;;6246592;28;19916;-67
2023/04/01 06:16:34;;;;;;;;;;;19.50;55.90;;;;;;6245368;28;19921;-69
2023/04/01 06:19:50;;;;;;;;;;;19.50;55.90;;;;;;6246151;28;19917;-67
2023/04/01 06:22:53;;;;;;;;;;;19.50;55.90;;;;;;6245951;28;19916;-69
2023/04/01 06:26:00;;;;;;;;;;;19.50;55.90;;;;;;6215668;28;20000;-69
2023/04/01 06:29:19;;;;;;;;;;;19.50;55.80;;;;;;6221438;28;19909;-69
2023/04/01 06:32:20;;;;;;;;;;;19.50;55.90;;;;;;6203511;28;19914;-69
2023/04/01 06:35:26;;;;;;;;;;;19.40;55.80;;;;;;6232847;28;19995;-70
2023/04/01 06:38:26;;;;;;;;;;;19.50;55.90;;;;;;6227707;28;19909;-70
2023/04/01 06:41:30;;;;;;;;;;;19.50;55.80;;;;;;6265762;28;20018;-69
2023/04/01 06:44:43;;;;;;;;;;;19.50;55.80;;;;;;6240498;28;19924;-69
2023/04/01 06:47:43;;;;;;;;;;;19.50;55.90;;;;;;6245512;28;20000;-70
2023/04/01 06:51:10;;;;;;;;;;;19.50;55.80;;;;;;6245293;28;19960;-69
2023/04/01 06:54:34;;;;;;;;;;;19.50;55.90;;;;;;6230052;28;19966;-69
2023/04/01 06:57:38;;;;;;;;;;;19.50;55.90;;;;;;6241420;28;19919;-69
2023/04/01 07:00:41;;;;;;;;;;;19.50;55.90;;;;;;6250627;28;20020;-69
2023/04/01 07:03:41;;;;;;;;;;;19.50;55.80;;;;;;6245267;28;19917;-69
2023/04/01 07:06:42;;;;;;;;;;;19.50;55.90;;;;;;6244976;28;19964;-69
2023/04/01 07:09:48;;;;;;;;;;;19.40;55.80;;;;;;6254596;28;19909;-69
2023/04/01 07:12:54;;;;;;;;;;;19.50;55.80;;;;;;6269499;28;19920;-69
2023/04/01 07:15:58;;;;;;;;;;;19.50;55.80;;;;;;6269560;28;19959;-70
2023/04/01 07:19:01;;;;;;;;;;;19.50;55.80;;;;;;6266867;28;19921;-69
2023/04/01 07:22:10;;;;;;;;;;;19.50;55.80;;;;;;6227986;28;19909;-69
2023/04/01 07:25:13;;;;;;;;;;;19.50;55.80;;;;;;6257644;28;20400;-69
2023/04/01 07:28:16;;;;;;;;;;;19.50;55.80;;;;;;6250202;28;19913;-70
2023/04/01 07:31:25;;;;;;;;;;;19.50;55.80;;;;;;6251141;28;19909;-69
2023/04/01 07:34:49;;;;;;;;;;;19.50;55.80;;;;;;6268249;28;19909;-69
2023/04/01 07:38:04;;;;;;;;;;;19.50;55.80;;;;;;6268637;28;19908;-70
2023/04/01 07:41:04;;;;;;;;;;;19.50;55.80;;;;;;6269096;28;20012;-70
2023/04/01 07:44:05;;;;;;;;;;;19.50;55.80;;;;;;6268648;28;19919;-70
2023/04/01 07:47:29;;;;;;;;;;;19.50;55.80;;;;;;6268939;28;19909;-69
2023/04/01 07:50:32;;;;;;;;;;;19.50;55.80;;;;;;6255268;28;19912;-69
2023/04/01 07:53:33;;;;;;;;;;;19.50;55.80;;;;;;6268208;28;19987;-69
2023/04/01 07:56:51;;;;;;;;;;;19.50;55.80;;;;;;6250561;28;19913;-69
2023/04/01 08:00:01;;;;;;;;;;;19.50;55.80;;;;;;6229737;28;19924;-70
2023/04/01 08:03:05;;;;;;;;;;;19.50;55.80;;;;;;6247407;28;20541;-69
2023/04/01 08:06:24;;;;;;;;;;;19.40;55.70;;;;;;6226133;28;19913;-69
2023/04/01 08:09:25;;;;;;;;;;;19.50;55.80;;;;;;6225970;28;20418;-69
2023/04/01 08:12:44;;;;;;;;;;;19.50;55.80;;;;;;6243850;28;19909;-70
2023/04/01 08:16:08;;;;;;;;;;;19.50;55.80;;;;;;6243368;28;19909;-69
2023/04/01 08:19:27;;;;;;;;;;;19.50;55.80;;;;;;6243021;28;19925;-70
2023/04/01 08:22:28;;;;;;;;;;;19.50;55.80;;;;;;6250574;28;19955;-70
2023/04/01 08:25:30;;;;;;;;;;;19.50;55.80;;;;;;6245232;28;19913;-69
2023/04/01 08:28:36;;;;;;;;;;;19.50;55.80;;;;;;6243694;28;19915;-70
2023/04/01 08:31:39;;;;;;;;;;;19.50;55.80;;;;;;6257552;28;19920;-69
2023/04/01 08:34:42;;;;;;;;;;;19.50;55.70;;;;;;6261556;28;20544;-70
2023/04/01 08:37:44;;;;;;;;;;;19.50;55.70;;;;;;6225568;28;19909;-69
2023/04/01 08:40:54;;;;;;;;;;;19.50;55.70;;;;;;6246167;28;20264;-69
2023/04/01 08:44:00;;;;;;;;;;;19.50;55.80;;;;;;6230425;28;20282;-69
2023/04/01 08:47:13;;;;;;;;;;;19.50;55.70;;;;;;6230649;28;19964;-69
2023/04/01 08:50:32;;;;;;;;;;;19.50;55.80;;;;;;6230358;28;20491;-70
2023/04/01 08:53:36;;;;;;;;;;;19.50;55.80;;;;;;6247500;28;20295;-69
2023/04/01 08:56:50;;;;;;;;;;;19.50;55.80;;;;;;6230522;28;20335;-69
2023/04/01 08:59:53;;;;;;;;;;;19.50;55.80;;;;;;6247801;28;20402;-69
2023/04/01 09:03:00;;;;;;;;;;;19.50;55.70;;;;;;6247676;28;20051;-69
2023/04/01 09:06:07;;;;;;;;;;;19.50;55.70;;;;;;6229941;28;19909;-69
2023/04/01 09:09:19;;;;;;;;;;;19.50;55.80;;;;;;6230042;28;19909;-69
2023/04/01 09:12:40;;;;;;;;;;;19.50;55.80;;;;;;6247525;28;19909;-69
2023/04/01 09:15:55;;;;;;;;;;;19.50;55.80;;;;;;6247711;28;19913;-69
2023/04/01 09:19:15;;;;;;;;;;;19.50;55.80;;;;;;6247536;28;19913;-69
2023/04/01 09:22:41;;;;;;;;;;;19.50;55.80;;;;;;6238424;28;20000;-69
2023/04/01 09:25:45;;;;;;;;;;;19.50;55.80;;;;;;6222578;28;20007;-69
2023/04/01 09:29:05;;;;;;;;;;;19.50;55.80;;;;;;6222557;28;19913;-67
2023/04/01 09:32:20;;;;;;;;;;;19.50;55.80;;;;;;6232038;28;19913;-69
2023/04/01 09:35:30;;;;;;;;;;;19.50;55.80;;;;;;6229342;28;20263;-69
2023/04/01 09:38:30;;;;;;;;;;;19.50;55.80;;;;;;6247339;28;19909;-69
2023/04/01 09:41:32;;;;;;;;;;;19.50;55.80;;;;;;6229464;28;19956;-69
2023/04/01 09:44:39;;;;;;;;;;;19.50;55.80;;;;;;6246928;28;20295;-69
2023/04/01 09:47:44;;;;;;;;;;;19.50;55.80;;;;;;6229068;28;19916;-69
2023/04/01 09:50:44;;;;;;;;;;;19.50;55.80;;;;;;6228081;28;19909;-69
2023/04/01 09:53:54;;;;;;;;;;;19.50;55.80;;;;;;6268237;28;19925;-69
2023/04/01 09:57:14;;;;;;;;;;;19.50;55.80;;;;;;6253694;28;19920;-69
2023/04/01 10:00:33;;;;;;;;;;;19.50;55.90;;;;;;6271169;28;19912;-69
2023/04/01 10:03:52;;;;;;;;;;;19.50;55.80;;;;;;6253437;28;19920;-69
2023/04/01 10:07:12;;;;;;;;;;;19.50;55.80;;;;;;6241207;28;20438;-71
2023/04/01 10:10:31;;;;;;;;;;;19.50;55.80;;;;;;6228102;28;19913;-71
2023/04/01 10:13:51;;;;;;;;;;;19.50;55.80;;;;;;6245172;28;19913;-70
2023/04/01 10:17:10;;;;;;;;;;;19.50;55.80;;;;;;6269403;28;19908;-70
2023/04/01 10:20:30;;;;;;;;;;;19.50;55.70;;;;;;6252126;28;19923;-70
2023/04/01 10:23:49;;;;;;;;;;;19.50;55.60;;;;;;6257858;28;19913;-70
2023/04/01 10:26:53;;;;;;;;;;;19.50;55.60;;;;;;6227054;28;19909;-70
2023/04/01 10:30:12;;;;;;;;;;;19.50;55.70;;;;;;6202744;28;19909;-70
2023/04/01 10:33:32;;;;;;;;;;;19.50;55.70;;;;;;6243819;28;19909;-71
2023/04/01 10:36:48;;;;;;;;;;;19.50;55.70;;;;;;6247820;28;19910;-70
2023/04/01 10:40:08;;;;;;;;;;;19.50;55.70;;;;;;6250424;28;20011;-70
2023/04/01 10:43:27;;;;;;;;;;;19.50;55.80;;;;;;6258712;28;19920;-69
2023/04/01 10:46:40;;;;;;;;;;;19.50;55.80;;;;;;6244836;28;19941;-70
2023/04/01 10:49:52;;;;;;;;;;;19.50;55.80;;;;;;6226532;28;19909;-70
2023/04/01 10:53:12;;;;;;;;;;;19.50;55.80;;;;;;6243312;28;19921;-69
2023/04/01 10:56:15;;;;;;;;;;;19.50;55.80;;;;;;6226521;28;20000;-70
2023/04/01 10:59:25;;;;;;;;;;;19.50;55.80;;;;;;6261836;28;19913;-70
2023/04/01 11:02:44;;;;;;;;;;;19.50;55.80;;;;;;6217306;28;19928;-71
2023/04/01 11:06:06;;;;;;;;;;;19.50;55.80;;;;;;6227573;28;19909;-71
2023/04/01 11:09:12;;;;;;;;;;;19.50;55.80;;;;;;6216123;28;20044;-70
2023/04/01 11:12:36;;;;;;;;;;;19.50;55.90;;;;;;6216356;28;20004;-71
2023/04/01 11:15:36;;;;;;;;;;;19.50;55.90;;;;;;6157593;28;20001;-70
2023/04/01 11:19:05;;;;;;;;;;;19.50;55.90;;;;;;6201515;28;19909;-70
2023/04/01 11:22:05;;;;;;;;;;;19.50;55.90;;;;;;6199497;28;19914;-70
2023/04/01 11:25:06;;;;;;;;;;;19.50;55.90;;;;;;6215160;28;19917;-71
2023/04/01 11:28:16;;;;;;;;;;;19.50;55.90;;;;;;6201284;28;20088;-71
2023/04/01 11:31:34;;;;;;;;;;;19.50;55.90;;;;;;6216507;28;19934;-71
2023/04/01 11:34:38;;;;;;;;;;;19.50;55.90;;;;;;6207794;28;20396;-70
2023/04/01 11:37:46;;;;;;;;;;;19.50;55.90;;;;;;6174264;28;20049;-71
2023/04/01 11:41:05;;;;;;;;;;;19.50;56.00;;;;;;6247137;28;19913;-69
2023/04/01 11:44:16;;;;;;;;;;;19.50;55.90;;;;;;6239612;28;19913;-71
2023/04/01 11:47:36;;;;;;;;;;;19.50;55.90;;;;;;6225405;28;19913;-71
2023/04/01 11:50:45;;;;;;;;;;;19.50;56.00;;;;;;6264677;28;19998;-71
2023/04/01 11:53:54;;;;;;;;;;;19.50;56.00;;;;;;6244084;28;22322;-70
2023/04/01 11:57:07;;;;;;;;;;;19.50;56.00;;;;;;6242176;28;19917;-70
2023/04/01 12:00:14;;;;;;;;;;;19.50;56.00;;;;;;6253104;28;19913;-70
2023/04/01 12:03:24;;;;;;;;;;;19.50;56.00;;;;;;6242491;28;19923;-69
2023/04/01 12:06:44;;;;;;;;;;;19.50;56.10;;;;;;6267659;28;19909;-69
2023/04/01 12:09:58;;;;;;;;;;;19.50;56.00;;;;;;6266935;28;19920;-71
2023/04/01 12:13:01;;;;;;;;;;;19.50;56.10;;;;;;6266482;28;20391;-71
2023/04/01 12:16:20;;;;;;;;;;;19.50;56.00;;;;;;6263805;28;19923;-71
2023/04/01 12:19:36;;;;;;;;;;;19.50;56.10;;;;;;6264664;28;19913;-71
2023/04/01 12:22:55;;;;;;;;;;;19.50;56.10;;;;;;6256821;28;20613;-69
2023/04/01 12:25:56;;;;;;;;;;;19.50;56.10;;;;;;6229021;28;19910;-70
2023/04/01 12:29:15;;;;;;;;;;;19.50;56.00;;;;;;6225294;28;19920;-72
2023/04/01 12:32:18;;;;;;;;;;;19.50;56.10;;;;;;6266759;28;19915;-71
2023/04/01 12:35:34;;;;;;;;;;;19.50;56.10;;;;;;6266779;28;20507;-71
2023/04/01 12:38:50;;;;;;;;;;;19.50;56.10;;;;;;6249063;28;19915;-71
2023/04/01 12:41:55;;;;;;;;;;;19.50;56.00;;;;;;6265497;28;19913;-71
2023/04/01 12:45:02;;;;;;;;;;;19.50;56.10;;;;;;6259576;28;19909;-71
2023/04/01 12:48:05;;;;;;;;;;;19.50;56.10;;;;;;6242208;28;19909;-71
2023/04/01 12:51:17;;;;;;;;;;;19.50;56.10;;;;;;6240173;28;19909;-69
2023/04/01 12:54:27;;;;;;;;;;;19.50;56.10;;;;;;6247935;28;19916;-71
2023/04/01 12:57:31;;;;;;;;;;;19.50;56.80;;;;;;6217391;28;20004;-71
2023/04/01 13:00:34;;;;;;;;;;;19.50;56.10;;;;;;6238492;28;20415;-71
2023/04/01 13:03:38;;;;;;;;;;;19.50;56.10;;;;;;6241318;28;19913;-71
2023/04/01 13:06:45;;;;;;;;;;;19.50;56.10;;;;;;6223846;28;19910;-71
2023/04/01 13:09:52;;;;;;;;;;;19.50;56.10;;;;;;6224678;28;19919;-71
2023/04/01 13:13:05;;;;;;;;;;;19.50;56.10;;;;;;6241586;28;19917;-71
2023/04/01 13:16:06;;;;;;;;;;;19.50;56.10;;;;;;6223969;28;20341;-71
2023/04/01 13:19:31;;;;;;;;;;;19.50;56.10;;;;;;6224133;28;19917;-71
2023/04/01 13:22:34;;;;;;;;;;;19.50;56.10;;;;;;6241070;28;19919;-71
2023/04/01 13:25:53;;;;;;;;;;;19.50;56.10;;;;;;6249552;28;19916;-71
2023/04/01 13:28:59;;;;;;;;;;;19.50;56.10;;;;;;6253454;28;19908;-71
2023/04/01 13:32:18;;;;;;;;;;;19.50;56.10;;;;;;6252508;28;19909;-71
2023/04/01 13:35:18;;;;;;;;;;;19.50;56.10;;;;;;6253829;28;19935;-70
2023/04/01 13:38:42;;;;;;;;;;;19.50;56.10;;;;;;6270657;28;20271;-70
2023/04/01 13:41:54;;;;;;;;;;;19.50;56.10;;;;;;6267511;28;19918;-71
2023/04/01 13:45:14;;;;;;;;;;;19.50;56.10;;;;;;6252361;28;19916;-71
2023/04/01 13:48:27;;;;;;;;;;;19.50;56.10;;;;;;6203654;28;20392;-70
2023/04/01 13:51:46;;;;;;;;;;;19.50;56.10;;;;;;6241813;28;20487;-69
2023/04/01 13:54:54;;;;;;;;;;;19.50;56.10;;;;;;6251880;28;19908;-70
2023/04/01 13:58:05;;;;;;;;;;;19.50;56.10;;;;;;6251422;28;19916;-71
2023/04/01 14:01:24;;;;;;;;;;;19.50;56.20;;;;;;6226549;28;19949;-70
2023/04/01 14:04:43;;;;;;;;;;;19.50;56.10;;;;;;6251710;28;19956;-71
2023/04/01 14:07:47;;;;;;;;;;;19.50;56.10;;;;;;6269530;28;19908;-71
2023/04/01 14:10:50;;;;;;;;;;;19.50;56.10;;;;;;6261420;28;19909;-71
2023/04/01 14:14:00;;;;;;;;;;;19.50;56.10;;;;;;6239774;28;19941;-70
2023/04/01 14:17:12;;;;;;;;;;;19.50;56.10;;;;;;6245101;28;19909;-71
2023/04/01 14:20:24;;;;;;;;;;;19.50;56.00;;;;;;6244818;28;19913;-70
2023/04/01 14:23:25;;;;;;;;;;;19.50;56.10;;;;;;6234262;28;20048;-71
2023/04/01 14:26:44;;;;;;;;;;;19.60;56.30;;;;;;6226742;28;19936;-71
2023/04/01 14:29:47;;;;;;;;;;;19.60;56.20;;;;;;6251334;28;19920;-70
2023/04/01 14:33:12;;;;;;;;;;;19.60;56.10;;;;;;6250879;28;20623;-71
2023/04/01 14:36:22;;;;;;;;;;;19.50;56.10;;;;;;6235449;28;19910;-71
2023/04/01 14:39:41;;;;;;;;;;;19.60;56.20;;;;;;6249874;28;19940;-71
2023/04/01 14:42:46;;;;;;;;;;;19.60;56.10;;;;;;6236550;28;19920;-71
2023/04/01 14:46:05;;;;;;;;;;;19.60;56.10;;;;;;6226535;28;20319;-70
2023/04/01 14:49:26;;;;;;;;;;;19.60;56.10;;;;;;6219921;28;20007;-70
2023/04/01 14:52:28;;;;;;;;;;;19.60;56.10;;;;;;6212073;28;19928;-71
2023/04/01 14:55:32;;;;;;;;;;;19.60;56.20;;;;;;6244346;28;19913;-70
2023/04/01 14:58:59;;;;;;;;;;;19.60;56.10;;;;;;6226979;28;19912;-71
2023/04/01 15:02:00;;;;;;;;;;;19.60;56.10;;;;;;6239804;28;19913;-71
2023/04/01 15:05:14;;;;;;;;;;;19.60;56.10;;;;;;6243805;28;19914;-71
2023/04/01 15:08:15;;;;;;;;;;;19.50;56.80;;;;;;6227956;28;19909;-71
2023/04/01 15:11:28;;;;;;;;;;;19.60;56.10;;;;;;6227047;28;19921;-71
2023/04/01 15:14:38;;;;;;;;;;;19.60;56.10;;;;;;6226367;28;19909;-70
2023/04/01 15:17:39;;;;;;;;;;;19.60;56.10;;;;;;6243243;28;19944;-70
2023/04/01 15:21:16;;;;;;;;;;;19.60;56.10;;;;;;6243261;28;20007;-70
2023/04/01 15:24:21;;;;;;;;;;;19.60;56.10;;;;;;6106705;28;20007;-69
2023/04/01 15:27:31;;;;;;;;;;;19.60;56.10;;;;;;6205742;28;19917;-71
2023/04/01 15:30:37;;;;;;;;;;;19.60;56.10;;;;;;6242880;28;19913;-70
2023/04/01 15:33:51;;;;;;;;;;;19.60;56.10;;;;;;6242824;28;19915;-70
2023/04/01 15:37:01;;;;;;;;;;;19.60;56.10;;;;;;6225411;28;20346;-71
2023/04/01 15:40:14;;;;;;;;;;;19.60;56.10;;;;;;6225175;28;20283;-70
2023/04/01 15:43:24;;;;;;;;;;;19.50;56.00;;;;;;6252362;28;19909;-70
2023/04/01 15:46:45;;;;;;;;;;;19.60;56.10;;;;;;6267557;28;19913;-70
2023/04/01 15:49:50;;;;;;;;;;;19.60;56.10;;;;;;6244985;28;19916;-70
2023/04/01 15:53:16;;;;;;;;;;;19.60;56.10;;;;;;6224089;28;19921;-70
2023/04/01 15:56:22;;;;;;;;;;;19.60;56.10;;;;;;6224883;28;19913;-71
2023/04/01 15:59:29;;;;;;;;;;;19.60;56.10;;;;;;6237195;28;20755;-70
2023/04/01 16:02:49;;;;;;;;;;;19.60;56.10;;;;;;6242844;28;19913;-70
2023/04/01 16:05:53;;;;;;;;;;;19.50;56.00;;;;;;6242915;28;19942;-70
2023/04/01 16:08:59;;;;;;;;;;;19.60;56.10;;;;;;6224348;28;19916;-71
2023/04/01 16:12:07;;;;;;;;;;;19.60;56.10;;;;;;6241913;28;19963;-71
2023/04/01 16:15:26;;;;;;;;;;;19.60;56.10;;;;;;6226847;28;19913;-70
2023/04/01 16:18:45;;;;;;;;;;;19.60;56.10;;;;;;6224867;28;19917;-71
2023/04/01 16:21:59;;;;;;;;;;;19.60;56.20;;;;;;6224444;28;19917;-71
2023/04/01 16:25:19;;;;;;;;;;;19.60;56.10;;;;;;6235127;28;19964;-70
2023/04/01 16:28:23;;;;;;;;;;;19.60;56.10;;;;;;6226032;28;19913;-70
2023/04/01 16:31:32;;;;;;;;;;;19.60;56.10;;;;;;6248707;28;19955;-70
2023/04/01 16:34:38;;;;;;;;;;;19.60;56.10;;;;;;6255069;28;19923;-71
2023/04/01 16:37:46;;;;;;;;;;;19.60;56.10;;;;;;6242233;28;19909;-70
2023/04/01 16:40:50;;;;;;;;;;;19.60;56.20;;;;;;6241909;28;20003;-71
2023/04/01 16:43:55;;;;;;;;;;;19.50;56.10;;;;;;6241413;28;19909;-70
2023/04/01 16:46:57;;;;;;;;;;;19.60;56.20;;;;;;6242059;28;19909;-71
2023/04/01 16:50:05;;;;;;;;;;;19.50;56.10;;;;;;6241546;28;20343;-70
2023/04/01 16:53:16;;;;;;;;;;;19.60;56.20;;;;;;6241311;28;19921;-71
2023/04/01 16:56:20;;;;;;;;;;;19.50;56.10;;;;;;6247454;28;19916;-71
2023/04/01 16:59:26;;;;;;;;;;;19.50;56.10;;;;;;6247814;28;19970;-71
2023/04/01 17:02:35;;;;;;;;;;;19.50;56.10;;;;;;6244763;28;20323;-70
2023/04/01 17:05:48;;;;;;;;;;;19.60;56.20;;;;;;6246111;28;20333;-70
2023/04/01 17:08:52;;;;;;;;;;;19.60;56.20;;;;;;6270049;28;19916;-70
2023/04/01 17:11:55;;;;;;;;;;;19.50;56.10;;;;;;6243812;28;19924;-70
2023/04/01 17:15:12;;;;;;;;;;;19.50;56.20;;;;;;6245862;28;19933;-70
2023/04/01 17:18:12;;;;;;;;;;;19.50;56.20;;;;;;6228798;28;19928;-71
2023/04/01 17:21:33;;;;;;;;;;;19.50;56.10;;;;;;6265831;28;20438;-70
2023/04/01 17:24:45;;;;;;;;;;;19.60;56.30;;;;;;6207072;28;19919;-70
2023/04/01 17:28:05;;;;;;;;;;;19.50;56.20;;;;;;6221630;28;19921;-71
2023/04/01 17:31:14;;;;;;;;;;;19.50;56.10;;;;;;6256362;28;19920;-71
2023/04/01 17:34:24;;;;;;;;;;;19.50;56.20;;;;;;6267511;28;19909;-70
2023/04/01 17:37:40;;;;;;;;;;;19.50;56.00;;;;;;6203671;28;19917;-70
2023/04/01 17:40:42;;;;;;;;;;;19.60;56.20;;;;;;6216269;28;19992;-70
2023/04/01 17:43:55;;;;;;;;;;;19.60;56.10;;;;;;6227868;28;19913;-70
2023/04/01 17:47:15;;;;;;;;;;;19.60;56.20;;;;;;6222694;28;20454;-71
2023/04/01 17:50:23;;;;;;;;;;;19.60;56.20;;;;;;6211764;28;19913;-70
2023/04/01 17:53:45;;;;;;;;;;;19.60;56.20;;;;;;6244960;28;19921;-71
2023/04/01 17:57:15;;;;;;;;;;;19.60;56.20;;;;;;6265675;28;19913;-70
2023/04/01 18:00:15;;;;;;;;;;;19.60;56.20;;;;;;6179817;28;20643;-70
2023/04/01 18:03:22;;;;;;;;;;;19.60;56.20;;;;;;6244891;28;19909;-70
2023/04/01 18:06:41;;;;;;;;;;;19.60;56.20;;;;;;6260818;28;19908;-70
2023/04/01 18:09:48;;;;;;;;;;;19.60;56.20;;;;;;6250594;28;19953;-68